sensor_id;sensor_type;location;lat;lon;timestamp;temperature;humidity
316;DHT22;14128;48.686;9.738;2023-08-06T00:00:32;14.50;1.40
316;DHT22;14128;48.686;9.738;2023-08-06T00:02:59;14.40;1.40
316;DHT22;14128;48.686;9.738;2023-08-06T00:05:26;14.40;1.40
316;DHT22;14128;48.686;9.738;2023-08-06T00:07:53;14.40;1.40
316;DHT22;14128;48.686;9.738;2023-08-06T00:10:19;14.50;1.40
316;DHT22;14128;48.686;9.738;2023-08-06T00:12:46;14.50;1.40
316;DHT22;14128;48.686;9.738;2023-08-06T00:15:15;14.50;1.40
316;DHT22;14128;48.686;9.738;2023-08-06T00:17:42;14.50;1.40
316;DHT22;14128;48.686;9.738;2023-08-06T00:20:09;14.50;1.40
316;DHT22;14128;48.686;9.738;2023-08-06T00:22:37;14.50;1.40
316;DHT22;14128;48.686;9.738;2023-08-06T00:25:05;14.50;1.40
316;DHT22;14128;48.686;9.738;2023-08-06T00:27:32;14.40;1.40
316;DHT22;14128;48.686;9.738;2023-08-06T00:29:59;14.40;1.40
316;DHT22;14128;48.686;9.738;2023-08-06T00:32:27;14.40;1.40
316;DHT22;14128;48.686;9.738;2023-08-06T00:34:54;14.40;1.40
316;DHT22;14128;48.686;9.738;2023-08-06T00:37:21;14.30;1.40
316;DHT22;14128;48.686;9.738;2023-08-06T00:39:47;14.30;1.40
316;DHT22;14128;48.686;9.738;2023-08-06T00:42:14;14.30;1.40
316;DHT22;14128;48.686;9.738;2023-08-06T00:44:42;14.30;1.40
316;DHT22;14128;48.686;9.738;2023-08-06T00:47:09;14.30;1.40
316;DHT22;14128;48.686;9.738;2023-08-06T00:49:38;14.30;1.40
316;DHT22;14128;48.686;9.738;2023-08-06T00:52:06;14.20;1.40
316;DHT22;14128;48.686;9.738;2023-08-06T00:54:34;14.30;1.40
316;DHT22;14128;48.686;9.738;2023-08-06T00:57:02;14.20;1.40
316;DHT22;14128;48.686;9.738;2023-08-06T00:59:29;14.20;1.40
316;DHT22;14128;48.686;9.738;2023-08-06T01:01:57;14.20;1.40
316;DHT22;14128;48.686;9.738;2023-08-06T01:04:24;14.20;1.40
316;DHT22;14128;48.686;9.738;2023-08-06T01:07:03;14.20;1.40
316;DHT22;14128;48.686;9.738;2023-08-06T01:09:37;14.00;1.40
316;DHT22;14128;48.686;9.738;2023-08-06T01:12:14;13.80;1.40
316;DHT22;14128;48.686;9.738;2023-08-06T01:14:48;13.70;1.40
316;DHT22;14128;48.686;9.738;2023-08-06T01:17:17;13.60;1.40
316;DHT22;14128;48.686;9.738;2023-08-06T01:19:44;13.40;1.40
316;DHT22;14128;48.686;9.738;2023-08-06T01:22:12;13.40;1.40
316;DHT22;14128;48.686;9.738;2023-08-06T01:24:41;13.40;1.40
316;DHT22;14128;48.686;9.738;2023-08-06T01:27:14;13.40;1.40
316;DHT22;14128;48.686;9.738;2023-08-06T01:29:47;13.40;1.40
316;DHT22;14128;48.686;9.738;2023-08-06T01:32:16;13.40;1.40
316;DHT22;14128;48.686;9.738;2023-08-06T01:34:44;13.40;1.40
316;DHT22;14128;48.686;9.738;2023-08-06T01:37:13;13.30;1.40
316;DHT22;14128;48.686;9.738;2023-08-06T01:39:42;13.20;1.40
316;DHT22;14128;48.686;9.738;2023-08-06T01:42:08;13.10;1.40
316;DHT22;14128;48.686;9.738;2023-08-06T01:44:35;13.00;1.40
316;DHT22;14128;48.686;9.738;2023-08-06T01:47:02;13.00;1.40
316;DHT22;14128;48.686;9.738;2023-08-06T01:49:29;12.90;1.40
316;DHT22;14128;48.686;9.738;2023-08-06T01:51:56;12.80;1.40
316;DHT22;14128;48.686;9.738;2023-08-06T01:54:24;12.70;1.40
316;DHT22;14128;48.686;9.738;2023-08-06T01:56:51;12.80;1.40
316;DHT22;14128;48.686;9.738;2023-08-06T01:59:18;12.70;1.40
316;DHT22;14128;48.686;9.738;2023-08-06T02:01:45;12.80;1.40
316;DHT22;14128;48.686;9.738;2023-08-06T02:04:11;13.00;1.40
316;DHT22;14128;48.686;9.738;2023-08-06T02:06:38;13.10;1.40
316;DHT22;14128;48.686;9.738;2023-08-06T02:09:05;13.10;1.40
316;DHT22;14128;48.686;9.738;2023-08-06T02:11:33;13.20;1.40
316;DHT22;14128;48.686;9.738;2023-08-06T02:14:00;13.20;1.40
316;DHT22;14128;48.686;9.738;2023-08-06T02:16:27;13.10;1.40
316;DHT22;14128;48.686;9.738;2023-08-06T02:18:53;13.00;1.40
316;DHT22;14128;48.686;9.738;2023-08-06T02:21:20;13.00;1.40
316;DHT22;14128;48.686;9.738;2023-08-06T02:23:47;13.10;1.40
316;DHT22;14128;48.686;9.738;2023-08-06T02:26:14;13.10;1.40
316;DHT22;14128;48.686;9.738;2023-08-06T02:28:42;13.10;1.40
316;DHT22;14128;48.686;9.738;2023-08-06T02:31:09;13.20;1.40
316;DHT22;14128;48.686;9.738;2023-08-06T02:33:35;13.10;1.40
316;DHT22;14128;48.686;9.738;2023-08-06T02:36:03;13.20;1.40
316;DHT22;14128;48.686;9.738;2023-08-06T02:38:31;13.10;1.40
316;DHT22;14128;48.686;9.738;2023-08-06T02:40:58;13.20;1.40
316;DHT22;14128;48.686;9.738;2023-08-06T02:43:25;13.10;1.40
316;DHT22;14128;48.686;9.738;2023-08-06T02:45:56;13.10;1.40
316;DHT22;14128;48.686;9.738;2023-08-06T02:48:24;13.10;1.40
316;DHT22;14128;48.686;9.738;2023-08-06T02:50:51;13.10;1.40
316;DHT22;14128;48.686;9.738;2023-08-06T02:53:17;13.10;1.40
316;DHT22;14128;48.686;9.738;2023-08-06T02:55:46;13.10;1.40
316;DHT22;14128;48.686;9.738;2023-08-06T02:58:13;13.00;1.40
316;DHT22;14128;48.686;9.738;2023-08-06T03:00:40;12.90;1.40
316;DHT22;14128;48.686;9.738;2023-08-06T03:03:09;12.70;1.40
316;DHT22;14128;48.686;9.738;2023-08-06T03:05:36;12.60;1.40
316;DHT22;14128;48.686;9.738;2023-08-06T03:08:02;12.50;1.40
316;DHT22;14128;48.686;9.738;2023-08-06T03:10:29;12.40;1.40
316;DHT22;14128;48.686;9.738;2023-08-06T03:12:56;12.30;1.40
316;DHT22;14128;48.686;9.738;2023-08-06T03:15:23;12.20;1.40
316;DHT22;14128;48.686;9.738;2023-08-06T03:17:50;12.20;1.40
316;DHT22;14128;48.686;9.738;2023-08-06T03:20:18;12.10;1.40
316;DHT22;14128;48.686;9.738;2023-08-06T03:22:45;12.10;1.40
316;DHT22;14128;48.686;9.738;2023-08-06T03:25:11;12.10;1.40
316;DHT22;14128;48.686;9.738;2023-08-06T03:27:38;12.20;1.40
316;DHT22;14128;48.686;9.738;2023-08-06T03:30:06;12.20;1.40
316;DHT22;14128;48.686;9.738;2023-08-06T03:32:33;12.10;1.40
316;DHT22;14128;48.686;9.738;2023-08-06T03:35:00;12.10;1.40
316;DHT22;14128;48.686;9.738;2023-08-06T03:37:28;12.00;1.40
316;DHT22;14128;48.686;9.738;2023-08-06T03:39:55;12.10;1.40
316;DHT22;14128;48.686;9.738;2023-08-06T03:42:22;12.00;1.40
316;DHT22;14128;48.686;9.738;2023-08-06T03:44:48;12.00;1.40
316;DHT22;14128;48.686;9.738;2023-08-06T03:47:15;12.00;1.40
316;DHT22;14128;48.686;9.738;2023-08-06T03:49:42;12.00;1.40
316;DHT22;14128;48.686;9.738;2023-08-06T03:52:09;12.00;1.40
316;DHT22;14128;48.686;9.738;2023-08-06T03:54:37;12.10;1.40
316;DHT22;14128;48.686;9.738;2023-08-06T03:57:05;12.20;1.40
316;DHT22;14128;48.686;9.738;2023-08-06T03:59:31;12.20;1.40
316;DHT22;14128;48.686;9.738;2023-08-06T04:01:58;12.30;1.40
316;DHT22;14128;48.686;9.738;2023-08-06T04:04:25;12.40;1.40
316;DHT22;14128;48.686;9.738;2023-08-06T04:06:52;12.50;1.40
316;DHT22;14128;48.686;9.738;2023-08-06T04:09:19;12.60;1.40
316;DHT22;14128;48.686;9.738;2023-08-06T04:11:47;12.60;1.40
316;DHT22;14128;48.686;9.738;2023-08-06T04:14:14;12.60;1.40
316;DHT22;14128;48.686;9.738;2023-08-06T04:16:40;12.70;1.40
316;DHT22;14128;48.686;9.738;2023-08-06T04:19:07;12.80;1.40
316;DHT22;14128;48.686;9.738;2023-08-06T04:21:34;12.80;1.40
316;DHT22;14128;48.686;9.738;2023-08-06T04:24:01;12.90;1.40
316;DHT22;14128;48.686;9.738;2023-08-06T04:26:27;12.90;1.40
316;DHT22;14128;48.686;9.738;2023-08-06T04:28:56;13.00;1.40
316;DHT22;14128;48.686;9.738;2023-08-06T04:31:22;13.00;1.40
316;DHT22;14128;48.686;9.738;2023-08-06T04:33:49;13.10;1.40
316;DHT22;14128;48.686;9.738;2023-08-06T04:36:16;13.20;1.40
316;DHT22;14128;48.686;9.738;2023-08-06T04:38:43;13.30;1.40
316;DHT22;14128;48.686;9.738;2023-08-06T04:41:12;13.40;1.40
316;DHT22;14128;48.686;9.738;2023-08-06T04:43:39;13.40;1.40
316;DHT22;14128;48.686;9.738;2023-08-06T04:46:07;13.40;1.40
316;DHT22;14128;48.686;9.738;2023-08-06T04:48:34;13.40;1.40
316;DHT22;14128;48.686;9.738;2023-08-06T04:51:01;13.40;1.40
316;DHT22;14128;48.686;9.738;2023-08-06T04:53:27;13.30;1.40
316;DHT22;14128;48.686;9.738;2023-08-06T04:55:54;13.40;1.40
316;DHT22;14128;48.686;9.738;2023-08-06T04:58:21;13.40;1.40
316;DHT22;14128;48.686;9.738;2023-08-06T05:00:48;13.40;1.40
316;DHT22;14128;48.686;9.738;2023-08-06T05:03:16;13.40;1.40
316;DHT22;14128;48.686;9.738;2023-08-06T05:05:43;13.40;1.40
316;DHT22;14128;48.686;9.738;2023-08-06T05:08:14;13.40;1.40
316;DHT22;14128;48.686;9.738;2023-08-06T05:10:42;13.40;1.40
316;DHT22;14128;48.686;9.738;2023-08-06T05:13:09;13.40;1.40
316;DHT22;14128;48.686;9.738;2023-08-06T05:15:36;13.40;1.40
316;DHT22;14128;48.686;9.738;2023-08-06T05:18:03;13.50;1.40
316;DHT22;14128;48.686;9.738;2023-08-06T05:20:31;13.50;1.40
316;DHT22;14128;48.686;9.738;2023-08-06T05:23:02;13.60;1.40
316;DHT22;14128;48.686;9.738;2023-08-06T05:25:29;13.70;1.40
316;DHT22;14128;48.686;9.738;2023-08-06T05:27:56;13.70;1.40
316;DHT22;14128;48.686;9.738;2023-08-06T05:30:22;13.80;1.40
316;DHT22;14128;48.686;9.738;2023-08-06T05:32:49;13.70;1.40
316;DHT22;14128;48.686;9.738;2023-08-06T05:35:16;13.50;1.40
316;DHT22;14128;48.686;9.738;2023-08-06T05:37:44;13.50;1.40
316;DHT22;14128;48.686;9.738;2023-08-06T05:40:11;13.60;1.40
316;DHT22;14128;48.686;9.738;2023-08-06T05:42:38;13.60;1.40
316;DHT22;14128;48.686;9.738;2023-08-06T05:45:05;13.60;1.40
316;DHT22;14128;48.686;9.738;2023-08-06T05:47:32;13.70;1.40
316;DHT22;14128;48.686;9.738;2023-08-06T05:49:59;13.80;1.40
316;DHT22;14128;48.686;9.738;2023-08-06T05:52:25;13.70;1.40
316;DHT22;14128;48.686;9.738;2023-08-06T05:54:54;13.70;1.40
316;DHT22;14128;48.686;9.738;2023-08-06T05:57:21;13.70;1.40
316;DHT22;14128;48.686;9.738;2023-08-06T05:59:48;13.80;1.40
316;DHT22;14128;48.686;9.738;2023-08-06T06:02:14;13.90;1.40
316;DHT22;14128;48.686;9.738;2023-08-06T06:04:41;13.80;1.40
316;DHT22;14128;48.686;9.738;2023-08-06T06:07:08;13.90;1.40
316;DHT22;14128;48.686;9.738;2023-08-06T06:09:35;13.80;1.40
316;DHT22;14128;48.686;9.738;2023-08-06T06:12:04;13.80;1.40
316;DHT22;14128;48.686;9.738;2023-08-06T06:14:31;13.90;1.40
316;DHT22;14128;48.686;9.738;2023-08-06T06:16:58;14.00;1.40
316;DHT22;14128;48.686;9.738;2023-08-06T06:19:25;13.90;1.40
316;DHT22;14128;48.686;9.738;2023-08-06T06:21:52;14.00;1.40
316;DHT22;14128;48.686;9.738;2023-08-06T06:24:19;14.10;1.40
316;DHT22;14128;48.686;9.738;2023-08-06T06:26:46;14.20;1.40
316;DHT22;14128;48.686;9.738;2023-08-06T06:29:14;14.30;1.40
316;DHT22;14128;48.686;9.738;2023-08-06T06:31:41;14.20;1.40
316;DHT22;14128;48.686;9.738;2023-08-06T06:34:08;14.40;1.40
316;DHT22;14128;48.686;9.738;2023-08-06T06:36:34;14.40;1.40
316;DHT22;14128;48.686;9.738;2023-08-06T06:39:01;14.20;1.40
316;DHT22;14128;48.686;9.738;2023-08-06T06:41:28;14.30;1.40
316;DHT22;14128;48.686;9.738;2023-08-06T06:43:57;14.20;1.40
316;DHT22;14128;48.686;9.738;2023-08-06T06:46:25;14.40;1.40
316;DHT22;14128;48.686;9.738;2023-08-06T06:48:52;14.40;1.40
316;DHT22;14128;48.686;9.738;2023-08-06T06:51:19;14.70;1.40
316;DHT22;14128;48.686;9.738;2023-08-06T06:53:45;14.80;1.40
316;DHT22;14128;48.686;9.738;2023-08-06T06:56:12;14.40;1.40
316;DHT22;14128;48.686;9.738;2023-08-06T06:58:39;14.40;1.40
316;DHT22;14128;48.686;9.738;2023-08-06T07:01:06;14.30;1.40
316;DHT22;14128;48.686;9.738;2023-08-06T07:03:36;14.30;1.40
316;DHT22;14128;48.686;9.738;2023-08-06T07:06:03;14.00;1.40
316;DHT22;14128;48.686;9.738;2023-08-06T07:08:31;14.00;1.40
316;DHT22;14128;48.686;9.738;2023-08-06T07:11:02;14.30;1.40
316;DHT22;14128;48.686;9.738;2023-08-06T07:13:29;14.50;1.40
316;DHT22;14128;48.686;9.738;2023-08-06T07:15:55;14.50;1.40
316;DHT22;14128;48.686;9.738;2023-08-06T07:18:22;14.60;1.40
316;DHT22;14128;48.686;9.738;2023-08-06T07:20:51;14.10;1.40
316;DHT22;14128;48.686;9.738;2023-08-06T07:23:19;14.20;1.40
316;DHT22;14128;48.686;9.738;2023-08-06T07:25:46;14.20;1.40
316;DHT22;14128;48.686;9.738;2023-08-06T07:28:13;14.40;1.40
316;DHT22;14128;48.686;9.738;2023-08-06T07:30:41;14.60;1.40
316;DHT22;14128;48.686;9.738;2023-08-06T07:33:08;14.70;1.40
316;DHT22;14128;48.686;9.738;2023-08-06T07:35:35;14.90;1.40
316;DHT22;14128;48.686;9.738;2023-08-06T07:38:04;14.80;1.40
316;DHT22;14128;48.686;9.738;2023-08-06T07:40:31;14.70;1.40
316;DHT22;14128;48.686;9.738;2023-08-06T07:42:57;14.60;1.40
316;DHT22;14128;48.686;9.738;2023-08-06T07:45:24;14.50;1.40
316;DHT22;14128;48.686;9.738;2023-08-06T07:47:52;14.60;1.40
316;DHT22;14128;48.686;9.738;2023-08-06T07:50:19;14.50;1.40
316;DHT22;14128;48.686;9.738;2023-08-06T07:52:46;14.90;1.40
316;DHT22;14128;48.686;9.738;2023-08-06T07:55:14;14.60;1.40
316;DHT22;14128;48.686;9.738;2023-08-06T07:57:41;14.90;1.40
316;DHT22;14128;48.686;9.738;2023-08-06T08:00:08;14.80;1.40
316;DHT22;14128;48.686;9.738;2023-08-06T08:02:36;14.70;1.40
316;DHT22;14128;48.686;9.738;2023-08-06T08:05:03;14.80;1.40
316;DHT22;14128;48.686;9.738;2023-08-06T08:07:30;14.60;1.40
316;DHT22;14128;48.686;9.738;2023-08-06T08:09:57;14.60;1.40
316;DHT22;14128;48.686;9.738;2023-08-06T08:12:25;14.70;1.40
316;DHT22;14128;48.686;9.738;2023-08-06T08:14:52;14.90;1.40
316;DHT22;14128;48.686;9.738;2023-08-06T08:17:18;14.80;1.40
316;DHT22;14128;48.686;9.738;2023-08-06T08:19:45;14.60;1.40
316;DHT22;14128;48.686;9.738;2023-08-06T08:22:12;14.60;1.40
316;DHT22;14128;48.686;9.738;2023-08-06T08:24:39;15.00;1.40
316;DHT22;14128;48.686;9.738;2023-08-06T08:27:05;15.00;1.40
316;DHT22;14128;48.686;9.738;2023-08-06T08:29:34;15.20;1.40
316;DHT22;14128;48.686;9.738;2023-08-06T08:32:00;15.50;1.40
316;DHT22;14128;48.686;9.738;2023-08-06T08:34:27;15.20;1.40
316;DHT22;14128;48.686;9.738;2023-08-06T08:36:54;15.40;1.40
316;DHT22;14128;48.686;9.738;2023-08-06T08:39:21;15.40;1.40
316;DHT22;14128;48.686;9.738;2023-08-06T08:41:47;15.80;1.40
316;DHT22;14128;48.686;9.738;2023-08-06T08:44:16;16.20;1.40
316;DHT22;14128;48.686;9.738;2023-08-06T08:46:45;15.90;1.40
316;DHT22;14128;48.686;9.738;2023-08-06T08:49:13;15.60;1.40
316;DHT22;14128;48.686;9.738;2023-08-06T08:51:40;15.60;1.40
316;DHT22;14128;48.686;9.738;2023-08-06T08:54:07;15.90;1.40
316;DHT22;14128;48.686;9.738;2023-08-06T08:56:35;16.20;1.40
316;DHT22;14128;48.686;9.738;2023-08-06T08:59:02;15.50;1.40
316;DHT22;14128;48.686;9.738;2023-08-06T09:01:29;16.10;1.40
316;DHT22;14128;48.686;9.738;2023-08-06T09:03:58;16.00;1.40
316;DHT22;14128;48.686;9.738;2023-08-06T09:06:26;15.90;1.40
316;DHT22;14128;48.686;9.738;2023-08-06T09:09:01;15.70;1.40
316;DHT22;14128;48.686;9.738;2023-08-06T09:11:29;15.90;1.40
316;DHT22;14128;48.686;9.738;2023-08-06T09:14:05;15.80;1.40
316;DHT22;14128;48.686;9.738;2023-08-06T09:16:34;15.80;1.40
316;DHT22;14128;48.686;9.738;2023-08-06T09:19:08;16.00;1.40
316;DHT22;14128;48.686;9.738;2023-08-06T09:21:37;16.20;1.40
316;DHT22;14128;48.686;9.738;2023-08-06T09:24:07;16.10;1.40
316;DHT22;14128;48.686;9.738;2023-08-06T09:26:35;16.20;1.40
316;DHT22;14128;48.686;9.738;2023-08-06T09:29:05;16.30;1.40
316;DHT22;14128;48.686;9.738;2023-08-06T09:31:33;16.20;1.40
316;DHT22;14128;48.686;9.738;2023-08-06T09:34:00;16.40;1.40
316;DHT22;14128;48.686;9.738;2023-08-06T09:36:29;16.40;1.40
316;DHT22;14128;48.686;9.738;2023-08-06T09:38:56;16.40;1.40
316;DHT22;14128;48.686;9.738;2023-08-06T09:41:26;16.20;1.40
316;DHT22;14128;48.686;9.738;2023-08-06T09:43:54;16.30;1.40
316;DHT22;14128;48.686;9.738;2023-08-06T09:46:21;16.70;1.40
316;DHT22;14128;48.686;9.738;2023-08-06T09:48:48;16.60;1.40
316;DHT22;14128;48.686;9.738;2023-08-06T09:51:16;16.70;1.40
316;DHT22;14128;48.686;9.738;2023-08-06T09:53:46;16.60;1.40
316;DHT22;14128;48.686;9.738;2023-08-06T09:56:14;16.40;1.40
316;DHT22;14128;48.686;9.738;2023-08-06T09:58:42;16.20;1.40
316;DHT22;14128;48.686;9.738;2023-08-06T10:01:10;16.40;1.40
316;DHT22;14128;48.686;9.738;2023-08-06T10:03:37;16.70;1.40
316;DHT22;14128;48.686;9.738;2023-08-06T10:06:05;17.30;1.40
316;DHT22;14128;48.686;9.738;2023-08-06T10:08:34;17.60;1.40
316;DHT22;14128;48.686;9.738;2023-08-06T10:11:03;18.30;1.40
316;DHT22;14128;48.686;9.738;2023-08-06T10:13:32;18.30;1.40
316;DHT22;14128;48.686;9.738;2023-08-06T10:15:59;17.60;1.40
316;DHT22;14128;48.686;9.738;2023-08-06T10:18:27;17.50;1.40
316;DHT22;14128;48.686;9.738;2023-08-06T10:20:54;17.50;1.40
316;DHT22;14128;48.686;9.738;2023-08-06T10:23:33;17.80;1.40
316;DHT22;14128;48.686;9.738;2023-08-06T10:26:00;17.80;1.40
316;DHT22;14128;48.686;9.738;2023-08-06T10:28:34;17.60;1.40
316;DHT22;14128;48.686;9.738;2023-08-06T10:31:01;17.10;1.40
316;DHT22;14128;48.686;9.738;2023-08-06T10:33:41;16.90;1.40
316;DHT22;14128;48.686;9.738;2023-08-06T10:36:09;17.10;1.40
316;DHT22;14128;48.686;9.738;2023-08-06T10:38:44;17.20;1.40
316;DHT22;14128;48.686;9.738;2023-08-06T10:41:16;17.30;1.40
316;DHT22;14128;48.686;9.738;2023-08-06T10:43:47;17.10;1.40
316;DHT22;14128;48.686;9.738;2023-08-06T10:46:23;17.00;1.40
316;DHT22;14128;48.686;9.738;2023-08-06T10:48:50;16.70;1.40
316;DHT22;14128;48.686;9.738;2023-08-06T10:51:17;16.10;1.40
316;DHT22;14128;48.686;9.738;2023-08-06T10:53:46;16.30;1.40
316;DHT22;14128;48.686;9.738;2023-08-06T10:56:14;16.30;1.40
316;DHT22;14128;48.686;9.738;2023-08-06T10:58:40;16.20;1.40
316;DHT22;14128;48.686;9.738;2023-08-06T11:01:09;16.60;1.40
316;DHT22;14128;48.686;9.738;2023-08-06T11:03:36;16.80;1.40
316;DHT22;14128;48.686;9.738;2023-08-06T11:06:04;17.20;1.40
316;DHT22;14128;48.686;9.738;2023-08-06T11:08:34;17.10;1.40
316;DHT22;14128;48.686;9.738;2023-08-06T11:11:08;17.10;1.40
316;DHT22;14128;48.686;9.738;2023-08-06T11:13:36;17.50;1.40
316;DHT22;14128;48.686;9.738;2023-08-06T11:16:04;17.00;1.40
316;DHT22;14128;48.686;9.738;2023-08-06T11:18:33;17.00;1.40
316;DHT22;14128;48.686;9.738;2023-08-06T11:21:00;16.80;1.40
316;DHT22;14128;48.686;9.738;2023-08-06T11:23:27;17.00;1.40
316;DHT22;14128;48.686;9.738;2023-08-06T11:25:55;16.90;1.40
316;DHT22;14128;48.686;9.738;2023-08-06T11:28:22;16.90;1.40
316;DHT22;14128;48.686;9.738;2023-08-06T11:30:49;16.70;1.40
316;DHT22;14128;48.686;9.738;2023-08-06T11:33:20;17.00;1.40
316;DHT22;14128;48.686;9.738;2023-08-06T11:35:49;17.20;1.40
316;DHT22;14128;48.686;9.738;2023-08-06T11:38:16;17.80;1.40
316;DHT22;14128;48.686;9.738;2023-08-06T11:40:44;17.90;1.40
316;DHT22;14128;48.686;9.738;2023-08-06T11:43:12;17.80;1.40
316;DHT22;14128;48.686;9.738;2023-08-06T11:45:39;18.10;1.40
316;DHT22;14128;48.686;9.738;2023-08-06T11:48:06;17.70;1.40
316;DHT22;14128;48.686;9.738;2023-08-06T11:50:36;16.70;1.40
316;DHT22;14128;48.686;9.738;2023-08-06T11:53:05;15.50;1.40
316;DHT22;14128;48.686;9.738;2023-08-06T11:55:32;15.20;1.40
316;DHT22;14128;48.686;9.738;2023-08-06T11:58:03;15.00;1.40
316;DHT22;14128;48.686;9.738;2023-08-06T12:00:30;14.50;1.40
316;DHT22;14128;48.686;9.738;2023-08-06T12:02:57;14.20;1.40
316;DHT22;14128;48.686;9.738;2023-08-06T12:05:29;13.90;1.40
316;DHT22;14128;48.686;9.738;2023-08-06T12:07:57;13.70;1.40
316;DHT22;14128;48.686;9.738;2023-08-06T12:10:27;13.50;1.40
316;DHT22;14128;48.686;9.738;2023-08-06T12:12:55;13.80;1.40
316;DHT22;14128;48.686;9.738;2023-08-06T12:15:22;14.20;1.40
316;DHT22;14128;48.686;9.738;2023-08-06T12:17:49;14.30;1.40
316;DHT22;14128;48.686;9.738;2023-08-06T12:20:16;14.40;1.40
316;DHT22;14128;48.686;9.738;2023-08-06T12:22:43;14.70;1.40
316;DHT22;14128;48.686;9.738;2023-08-06T12:25:11;14.70;1.40
316;DHT22;14128;48.686;9.738;2023-08-06T12:27:41;14.80;1.40
316;DHT22;14128;48.686;9.738;2023-08-06T12:30:08;15.10;1.40
316;DHT22;14128;48.686;9.738;2023-08-06T12:32:36;14.80;1.40
316;DHT22;14128;48.686;9.738;2023-08-06T12:35:04;14.50;1.40
316;DHT22;14128;48.686;9.738;2023-08-06T12:37:32;14.40;1.40
316;DHT22;14128;48.686;9.738;2023-08-06T12:39:59;14.10;1.40
316;DHT22;14128;48.686;9.738;2023-08-06T12:42:26;13.90;1.40
316;DHT22;14128;48.686;9.738;2023-08-06T12:44:54;13.80;1.40
316;DHT22;14128;48.686;9.738;2023-08-06T12:47:46;13.70;1.40
316;DHT22;14128;48.686;9.738;2023-08-06T12:50:14;13.50;1.40
316;DHT22;14128;48.686;9.738;2023-08-06T12:52:41;13.50;1.40
316;DHT22;14128;48.686;9.738;2023-08-06T12:55:08;13.30;1.40
316;DHT22;14128;48.686;9.738;2023-08-06T12:57:34;13.50;1.40
316;DHT22;14128;48.686;9.738;2023-08-06T13:00:03;13.50;1.40
316;DHT22;14128;48.686;9.738;2023-08-06T13:02:30;13.30;1.40
316;DHT22;14128;48.686;9.738;2023-08-06T13:04:57;13.10;1.40
316;DHT22;14128;48.686;9.738;2023-08-06T13:07:49;13.20;1.40
316;DHT22;14128;48.686;9.738;2023-08-06T13:10:16;13.10;1.40
316;DHT22;14128;48.686;9.738;2023-08-06T13:12:43;13.20;1.40
316;DHT22;14128;48.686;9.738;2023-08-06T13:15:11;13.10;1.40
316;DHT22;14128;48.686;9.738;2023-08-06T13:17:39;13.00;1.40
316;DHT22;14128;48.686;9.738;2023-08-06T13:20:07;13.00;1.40
316;DHT22;14128;48.686;9.738;2023-08-06T13:22:34;12.90;1.40
316;DHT22;14128;48.686;9.738;2023-08-06T13:25:01;13.10;1.40
316;DHT22;14128;48.686;9.738;2023-08-06T13:27:27;13.10;1.40
316;DHT22;14128;48.686;9.738;2023-08-06T13:29:54;13.30;1.40
316;DHT22;14128;48.686;9.738;2023-08-06T13:32:22;13.40;1.40
316;DHT22;14128;48.686;9.738;2023-08-06T13:34:49;13.30;1.40
316;DHT22;14128;48.686;9.738;2023-08-06T13:37:16;13.30;1.40
316;DHT22;14128;48.686;9.738;2023-08-06T13:39:43;13.40;1.40
316;DHT22;14128;48.686;9.738;2023-08-06T13:42:10;13.20;1.40
316;DHT22;14128;48.686;9.738;2023-08-06T13:44:37;13.40;1.40
316;DHT22;14128;48.686;9.738;2023-08-06T13:47:04;13.50;1.40
316;DHT22;14128;48.686;9.738;2023-08-06T13:49:32;13.60;1.40
316;DHT22;14128;48.686;9.738;2023-08-06T13:51:58;13.60;1.40
316;DHT22;14128;48.686;9.738;2023-08-06T13:54:25;13.70;1.40
316;DHT22;14128;48.686;9.738;2023-08-06T13:56:52;14.20;1.40
316;DHT22;14128;48.686;9.738;2023-08-06T13:59:19;14.40;1.40
316;DHT22;14128;48.686;9.738;2023-08-06T14:01:46;14.50;1.40
316;DHT22;14128;48.686;9.738;2023-08-06T14:04:13;14.60;1.40
316;DHT22;14128;48.686;9.738;2023-08-06T14:06:41;14.50;1.40
316;DHT22;14128;48.686;9.738;2023-08-06T14:09:08;14.50;1.40
316;DHT22;14128;48.686;9.738;2023-08-06T14:11:37;14.40;1.40
316;DHT22;14128;48.686;9.738;2023-08-06T14:14:04;14.10;1.40
316;DHT22;14128;48.686;9.738;2023-08-06T14:16:33;14.00;1.40
316;DHT22;14128;48.686;9.738;2023-08-06T14:18:59;14.00;1.40
316;DHT22;14128;48.686;9.738;2023-08-06T14:21:26;14.20;1.40
316;DHT22;14128;48.686;9.738;2023-08-06T14:23:54;14.20;1.40
316;DHT22;14128;48.686;9.738;2023-08-06T14:26:21;14.00;1.40
316;DHT22;14128;48.686;9.738;2023-08-06T14:28:48;14.20;1.40
316;DHT22;14128;48.686;9.738;2023-08-06T14:31:19;14.30;1.40
316;DHT22;14128;48.686;9.738;2023-08-06T14:33:46;14.50;1.40
316;DHT22;14128;48.686;9.738;2023-08-06T14:36:13;14.70;1.40
316;DHT22;14128;48.686;9.738;2023-08-06T14:38:40;14.80;1.40
316;DHT22;14128;48.686;9.738;2023-08-06T14:41:08;14.60;1.40
316;DHT22;14128;48.686;9.738;2023-08-06T14:43:35;14.60;1.40
316;DHT22;14128;48.686;9.738;2023-08-06T14:46:01;14.40;1.40
316;DHT22;14128;48.686;9.738;2023-08-06T14:48:28;14.30;1.40
316;DHT22;14128;48.686;9.738;2023-08-06T14:50:55;14.50;1.40
316;DHT22;14128;48.686;9.738;2023-08-06T14:53:22;14.60;1.40
316;DHT22;14128;48.686;9.738;2023-08-06T14:55:49;14.70;1.40
316;DHT22;14128;48.686;9.738;2023-08-06T14:58:17;14.80;1.40
316;DHT22;14128;48.686;9.738;2023-08-06T15:00:45;14.60;1.40
316;DHT22;14128;48.686;9.738;2023-08-06T15:03:11;14.40;1.40
316;DHT22;14128;48.686;9.738;2023-08-06T15:05:38;14.40;1.40
316;DHT22;14128;48.686;9.738;2023-08-06T15:08:05;14.20;1.40
316;DHT22;14128;48.686;9.738;2023-08-06T15:10:32;14.10;1.40
316;DHT22;14128;48.686;9.738;2023-08-06T15:12:59;14.00;1.40
316;DHT22;14128;48.686;9.738;2023-08-06T15:15:28;13.90;1.40
316;DHT22;14128;48.686;9.738;2023-08-06T15:17:54;14.10;1.40
316;DHT22;14128;48.686;9.738;2023-08-06T15:20:22;14.00;1.40
316;DHT22;14128;48.686;9.738;2023-08-06T15:22:49;14.00;1.40
316;DHT22;14128;48.686;9.738;2023-08-06T15:25:16;14.00;1.40
316;DHT22;14128;48.686;9.738;2023-08-06T15:27:43;14.00;1.40
316;DHT22;14128;48.686;9.738;2023-08-06T15:30:11;14.10;1.40
316;DHT22;14128;48.686;9.738;2023-08-06T15:32:39;14.10;1.40
316;DHT22;14128;48.686;9.738;2023-08-06T15:35:09;14.10;1.40
316;DHT22;14128;48.686;9.738;2023-08-06T15:37:36;14.10;1.40
316;DHT22;14128;48.686;9.738;2023-08-06T15:40:03;14.20;1.40
316;DHT22;14128;48.686;9.738;2023-08-06T15:42:30;14.30;1.40
316;DHT22;14128;48.686;9.738;2023-08-06T15:44:57;14.80;1.40
316;DHT22;14128;48.686;9.738;2023-08-06T15:47:24;15.80;1.40
316;DHT22;14128;48.686;9.738;2023-08-06T15:49:52;17.80;1.40
316;DHT22;14128;48.686;9.738;2023-08-06T15:52:19;18.60;1.40
316;DHT22;14128;48.686;9.738;2023-08-06T15:54:45;19.30;1.40
316;DHT22;14128;48.686;9.738;2023-08-06T15:57:12;17.20;1.40
316;DHT22;14128;48.686;9.738;2023-08-06T15:59:41;17.20;1.40
316;DHT22;14128;48.686;9.738;2023-08-06T16:02:08;20.80;1.40
316;DHT22;14128;48.686;9.738;2023-08-06T16:04:35;19.20;1.40
316;DHT22;14128;48.686;9.738;2023-08-06T16:07:03;18.30;1.40
316;DHT22;14128;48.686;9.738;2023-08-06T16:09:30;17.90;1.40
316;DHT22;14128;48.686;9.738;2023-08-06T16:11:57;17.20;1.40
316;DHT22;14128;48.686;9.738;2023-08-06T16:14:24;16.50;1.40
316;DHT22;14128;48.686;9.738;2023-08-06T16:16:50;15.70;1.40
316;DHT22;14128;48.686;9.738;2023-08-06T16:19:17;15.40;1.40